ANZ045 NZAA-YBBN
Flight info
| Callsign | ANZ045 |
|---|---|
| Flight time | N/A |
| Altitude | 38000 |
| Route | UPLAR A464 RIGMI/F400 DCT UGTUG UGTU2A/19L |
| Aircraft | B789/H-VGDW/C |
Departure
| Time | N/A |
|---|---|
| Airport | Auckland International Airport (NZAA) |
Arrival
| Time | 2026-04-30 08:36 |
|---|---|
| Airport | Brisbane International Airport (YBBN) |
| Time | Latitude | Longitude | Altitude | Speed | Heading |
|---|---|---|---|---|---|
| 2026-04-30 08:13 | -27.78864 | 154.69871 | 28556 ft | 298 kts | 219° |
| 2026-04-30 08:13 | -27.80624 | 154.68508 | 28345 ft | 313 kts | 219° |
| 2026-04-30 08:13 | -27.82483 | 154.67046 | 28232 ft | 341 kts | 219° |
| 2026-04-30 08:13 | -27.84511 | 154.65304 | 27750 ft | 378 kts | 226° |
| 2026-04-30 08:14 | -27.86453 | 154.63100 | 27341 ft | 413 kts | 231° |
| 2026-04-30 08:14 | -27.88112 | 154.60340 | 26982 ft | 436 kts | 245° |
| 2026-04-30 08:14 | -27.88894 | 154.58234 | 26736 ft | 440 kts | 253° |
| 2026-04-30 08:14 | -27.89513 | 154.54943 | 26354 ft | 443 kts | 265° |
| 2026-04-30 08:15 | -27.89563 | 154.52722 | 26094 ft | 447 kts | 273° |
| 2026-04-30 08:15 | -27.89066 | 154.49227 | 25691 ft | 456 kts | 285° |
| 2026-04-30 08:15 | -27.87879 | 154.45873 | 25248 ft | 465 kts | 297° |
| 2026-04-30 08:15 | -27.86074 | 154.42795 | 24743 ft | 472 kts | 307° |
| 2026-04-30 08:16 | -27.83890 | 154.40055 | 24157 ft | 465 kts | 311° |
| 2026-04-30 08:16 | -27.81749 | 154.37405 | 23416 ft | 448 kts | 309° |
| 2026-04-30 08:16 | -27.79850 | 154.34690 | 22625 ft | 432 kts | 304° |
| 2026-04-30 08:16 | -27.78186 | 154.31933 | 21849 ft | 419 kts | 302° |
| 2026-04-30 08:17 | -27.76542 | 154.29248 | 21085 ft | 411 kts | 305° |
| 2026-04-30 08:17 | -27.74816 | 154.26694 | 20337 ft | 407 kts | 307° |
| 2026-04-30 08:17 | -27.73085 | 154.24159 | 19630 ft | 410 kts | 306° |
| 2026-04-30 08:17 | -27.71387 | 154.21559 | 18940 ft | 410 kts | 306° |
| 2026-04-30 08:18 | -27.69737 | 154.19004 | 18251 ft | 396 kts | 306° |
| 2026-04-30 08:18 | -27.68124 | 154.16556 | 17569 ft | 382 kts | 307° |
| 2026-04-30 08:18 | -27.66552 | 154.14193 | 16907 ft | 370 kts | 307° |
| 2026-04-30 08:18 | -27.65037 | 154.11898 | 16250 ft | 360 kts | 306° |
| 2026-04-30 08:19 | -27.63569 | 154.09664 | 15639 ft | 350 kts | 306° |
| 2026-04-30 08:19 | -27.62135 | 154.07488 | 15068 ft | 341 kts | 307° |
| 2026-04-30 08:19 | -27.60728 | 154.05361 | 14500 ft | 335 kts | 307° |
| 2026-04-30 08:19 | -27.59349 | 154.03276 | 13968 ft | 329 kts | 307° |
| 2026-04-30 08:20 | -27.57987 | 154.01215 | 13440 ft | 326 kts | 307° |
| 2026-04-30 08:20 | -27.56642 | 153.99180 | 12907 ft | 322 kts | 307° |
| 2026-04-30 08:20 | -27.55300 | 153.97151 | 12414 ft | 323 kts | 307° |
| 2026-04-30 08:20 | -27.53959 | 153.95125 | 12028 ft | 323 kts | 307° |
| 2026-04-30 08:21 | -27.52610 | 153.93089 | 11721 ft | 324 kts | 307° |
| 2026-04-30 08:21 | -27.51262 | 153.91055 | 11417 ft | 324 kts | 307° |
| 2026-04-30 08:21 | -27.49912 | 153.89017 | 11115 ft | 325 kts | 307° |
| 2026-04-30 08:21 | -27.48505 | 153.87039 | 10846 ft | 322 kts | 315° |
| 2026-04-30 08:22 | -27.46938 | 153.85249 | 10620 ft | 319 kts | 313° |
| 2026-04-30 08:22 | -27.45446 | 153.83411 | 10383 ft | 317 kts | 313° |
| 2026-04-30 08:22 | -27.43950 | 153.81604 | 10198 ft | 313 kts | 314° |
| 2026-04-30 08:22 | -27.42447 | 153.79839 | 10045 ft | 311 kts | 314° |
| 2026-04-30 08:23 | -27.40952 | 153.78080 | 9877 ft | 311 kts | 314° |
| 2026-04-30 08:23 | -27.39468 | 153.76315 | 9720 ft | 310 kts | 314° |
| 2026-04-30 08:23 | -27.37988 | 153.74557 | 9550 ft | 309 kts | 314° |
| 2026-04-30 08:23 | -27.36489 | 153.72781 | 9406 ft | 308 kts | 314° |
| 2026-04-30 08:24 | -27.35010 | 153.71034 | 9252 ft | 308 kts | 314° |
| 2026-04-30 08:24 | -27.33559 | 153.69309 | 9094 ft | 307 kts | 312° |
| 2026-04-30 08:24 | -27.32394 | 153.67290 | 9004 ft | 304 kts | 295° |
| 2026-04-30 08:24 | -27.31376 | 153.65197 | 8974 ft | 307 kts | 300° |
| 2026-04-30 08:25 | -27.30309 | 153.63139 | 8753 ft | 309 kts | 299° |
| 2026-04-30 08:25 | -27.29244 | 153.61015 | 8476 ft | 307 kts | 298° |
| 2026-04-30 08:25 | -27.28217 | 153.58915 | 8213 ft | 305 kts | 298° |
| 2026-04-30 08:25 | -27.27193 | 153.56841 | 7941 ft | 301 kts | 298° |
| 2026-04-30 08:26 | -27.26184 | 153.54816 | 7659 ft | 292 kts | 298° |
| 2026-04-30 08:26 | -27.25203 | 153.52848 | 7362 ft | 285 kts | 298° |
| 2026-04-30 08:26 | -27.24248 | 153.50926 | 7075 ft | 279 kts | 298° |
| 2026-04-30 08:26 | -27.23309 | 153.49035 | 6780 ft | 276 kts | 298° |
| 2026-04-30 08:27 | -27.22375 | 153.47157 | 6510 ft | 274 kts | 298° |
| 2026-04-30 08:27 | -27.21445 | 153.45289 | 6303 ft | 275 kts | 298° |
| 2026-04-30 08:27 | -27.20514 | 153.43420 | 6091 ft | 274 kts | 298° |
| 2026-04-30 08:27 | -27.19547 | 153.41584 | 5898 ft | 272 kts | 308° |
| 2026-04-30 08:28 | -27.18116 | 153.40226 | 5690 ft | 268 kts | 325° |
| 2026-04-30 08:28 | -27.16700 | 153.38872 | 5488 ft | 267 kts | 319° |
| 2026-04-30 08:28 | -27.15318 | 153.37495 | 5288 ft | 265 kts | 320° |
| 2026-04-30 08:28 | -27.13945 | 153.36122 | 5075 ft | 263 kts | 310° |
| 2026-04-30 08:29 | -27.13372 | 153.34965 | 5039 ft | 249 kts | 288° |
| 2026-04-30 08:29 | -27.13212 | 153.32672 | 4991 ft | 211 kts | 253° |
| 2026-04-30 08:29 | -27.13736 | 153.31184 | 4948 ft | 205 kts | 237° |
| 2026-04-30 08:29 | -27.14149 | 153.30205 | 4789 ft | 211 kts | 239° |
| 2026-04-30 08:30 | -27.14762 | 153.28719 | 4542 ft | 208 kts | 239° |
| 2026-04-30 08:30 | -27.15386 | 153.27235 | 4297 ft | 207 kts | 239° |
| 2026-04-30 08:30 | -27.16077 | 153.25851 | 4023 ft | 198 kts | 221° |
| 2026-04-30 08:30 | -27.17170 | 153.25081 | 4001 ft | 182 kts | 199° |
| 2026-04-30 08:31 | -27.18343 | 153.24470 | 4007 ft | 186 kts | 197° |
| 2026-04-30 08:31 | -27.19525 | 153.23871 | 3948 ft | 184 kts | 198° |
| 2026-04-30 08:31 | -27.20656 | 153.23277 | 3795 ft | 177 kts | 198° |
| 2026-04-30 08:31 | -27.21727 | 153.22661 | 3487 ft | 169 kts | 200° |
| 2026-04-30 08:32 | -27.22746 | 153.22036 | 3139 ft | 169 kts | 202° |
| 2026-04-30 08:32 | -27.23756 | 153.21382 | 2703 ft | 167 kts | 203° |
| 2026-04-30 08:32 | -27.24754 | 153.20723 | 2170 ft | 164 kts | 202° |
| 2026-04-30 08:32 | -27.25730 | 153.20134 | 1723 ft | 157 kts | 201° |
| 2026-04-30 08:33 | -27.26688 | 153.19547 | 1365 ft | 154 kts | 202° |
| 2026-04-30 08:33 | -27.27651 | 153.19042 | 1080 ft | 155 kts | 198° |
| 2026-04-30 08:33 | -27.28612 | 153.18545 | 838 ft | 148 kts | 204° |
| 2026-04-30 08:33 | -27.29510 | 153.18001 | 688 ft | 149 kts | 207° |
| 2026-04-30 08:34 | -27.30441 | 153.17454 | 600 ft | 148 kts | 205° |
| 2026-04-30 08:34 | -27.31360 | 153.16961 | 538 ft | 150 kts | 205° |
| 2026-04-30 08:34 | -27.32278 | 153.16450 | 545 ft | 147 kts | 206° |
| 2026-04-30 08:34 | -27.33207 | 153.15889 | 525 ft | 157 kts | 206° |
| 2026-04-30 08:35 | -27.34171 | 153.15338 | 386 ft | 154 kts | 206° |
| 2026-04-30 08:35 | -27.35119 | 153.14797 | 226 ft | 154 kts | 208° |
| 2026-04-30 08:35 | -27.36048 | 153.14260 | 148 ft | 150 kts | 206° |
| 2026-04-30 08:35 | -27.36972 | 153.13726 | 138 ft | 149 kts | 207° |
| 2026-04-30 08:36 | -27.37791 | 153.13255 | 44 ft | 151 kts | 207° |
| 2026-04-30 08:36 | -27.38662 | 153.12750 | 28 ft | 123 kts | 207° |
| 2026-04-30 08:36 | -27.39274 | 153.12396 | 29 ft | 76 kts | 207° |
| 2026-04-30 08:36 | -27.39557 | 153.12218 | 27 ft | 22 kts | 232° |
| 2026-04-30 08:37 | -27.39556 | 153.12089 | 28 ft | 11 kts | 294° |
| 2026-04-30 08:37 | -27.39550 | 153.12074 | 27 ft | 0 kts | 295° |
| 2026-04-30 08:37 | -27.39545 | 153.12060 | 27 ft | 2 kts | 281° |
| 2026-04-30 08:37 | -27.39559 | 153.12021 | 24 ft | 10 kts | 228° |
| 2026-04-30 08:38 | -27.39653 | 153.11956 | 26 ft | 18 kts | 207° |
| 2026-04-30 08:38 | -27.39765 | 153.11892 | 25 ft | 18 kts | 206° |
| 2026-04-30 08:38 | -27.39874 | 153.11827 | 27 ft | 18 kts | 207° |
| 2026-04-30 08:38 | -27.39987 | 153.11761 | 26 ft | 19 kts | 207° |
| 2026-04-30 08:39 | -27.40104 | 153.11693 | 27 ft | 19 kts | 207° |
| 2026-04-30 08:39 | -27.40221 | 153.11628 | 27 ft | 13 kts | 206° |
| 2026-04-30 08:39 | -27.40241 | 153.11607 | 27 ft | 0 kts | 233° |
| 2026-04-30 08:39 | -27.40251 | 153.11555 | 28 ft | 10 kts | 275° |
| 2026-04-30 08:40 | -27.40240 | 153.11522 | 26 ft | 0 kts | 298° |
| 2026-04-30 08:40 | -27.40201 | 153.11430 | 25 ft | 25 kts | 296° |
| 2026-04-30 08:40 | -27.40116 | 153.11300 | 28 ft | 14 kts | 323° |
| 2026-04-30 08:40 | -27.40101 | 153.11289 | 26 ft | 0 kts | 321° |